sensor_id;sensor_type;location;lat;lon;timestamp;pressure;altitude;pressure_sealevel;temperature;humidity
72857;BME280;62742;52.136;4.500;2023-04-07T00:02:28;101598.06;;;8.10;98.45
72857;BME280;62742;52.136;4.500;2023-04-07T00:04:55;101598.13;;;8.20;97.87
72857;BME280;62742;52.136;4.500;2023-04-07T00:07:23;101591.88;;;8.00;98.72
72857;BME280;62742;52.136;4.500;2023-04-07T00:09:49;101592.84;;;8.10;98.20
72857;BME280;62742;52.136;4.500;2023-04-07T00:12:15;101598.88;;;7.99;99.08
72857;BME280;62742;52.136;4.500;2023-04-07T00:14:41;101595.41;;;8.05;98.47
72857;BME280;62742;52.136;4.500;2023-04-07T00:17:08;101595.34;;;7.99;98.65
72857;BME280;62742;52.136;4.500;2023-04-07T00:19:34;101595.34;;;7.93;99.14
72857;BME280;62742;52.136;4.500;2023-04-07T00:22:00;101606.56;;;7.84;99.29
72857;BME280;62742;52.136;4.500;2023-04-07T00:24:26;101607.44;;;7.81;99.30
72857;BME280;62742;52.136;4.500;2023-04-07T00:26:52;101611.69;;;7.70;99.22
72857;BME280;62742;52.136;4.500;2023-04-07T00:29:19;101602.16;;;7.77;99.04
72857;BME280;62742;52.136;4.500;2023-04-07T00:31:45;101608.25;;;7.74;98.34
72857;BME280;62742;52.136;4.500;2023-04-07T00:34:11;101611.75;;;7.75;97.62
72857;BME280;62742;52.136;4.500;2023-04-07T00:36:37;101623.03;;;7.67;97.51
72857;BME280;62742;52.136;4.500;2023-04-07T00:39:03;101615.13;;;7.63;97.90
72857;BME280;62742;52.136;4.500;2023-04-07T00:41:32;101614.19;;;7.55;97.67
72857;BME280;62742;52.136;4.500;2023-04-07T00:43:59;101618.47;;;7.48;97.61
72857;BME280;62742;52.136;4.500;2023-04-07T00:46:25;101611.44;;;7.42;97.38
72857;BME280;62742;52.136;4.500;2023-04-07T00:48:51;101616.66;;;7.41;97.84
72857;BME280;62742;52.136;4.500;2023-04-07T00:51:21;101613.22;;;7.45;97.37
72857;BME280;62742;52.136;4.500;2023-04-07T00:53:48;101616.59;;;7.32;97.72
72857;BME280;62742;52.136;4.500;2023-04-07T00:56:14;101618.28;;;7.26;97.84
72857;BME280;62742;52.136;4.500;2023-04-07T00:58:40;101621.72;;;7.25;98.18
72857;BME280;62742;52.136;4.500;2023-04-07T01:01:07;101619.09;;;7.24;98.33
72857;BME280;62742;52.136;4.500;2023-04-07T01:03:40;101620.03;;;7.29;98.68
72857;BME280;62742;52.136;4.500;2023-04-07T01:06:12;101618.31;;;7.31;98.73
72857;BME280;62742;52.136;4.500;2023-04-07T01:08:49;101614.78;;;7.29;98.55
72857;BME280;62742;52.136;4.500;2023-04-07T01:11:23;101615.66;;;7.26;98.96
72857;BME280;62742;52.136;4.500;2023-04-07T01:13:53;101616.53;;;7.27;99.31
72857;BME280;62742;52.136;4.500;2023-04-07T01:16:53;101614.78;;;7.24;99.20
72857;BME280;62742;52.136;4.500;2023-04-07T01:19:16;101615.69;;;7.28;99.70
72857;BME280;62742;52.136;4.500;2023-04-07T01:22:02;101619.16;;;7.28;100.00
72857;BME280;62742;52.136;4.500;2023-04-07T01:27:31;101618.38;;;7.39;100.00
72857;BME280;62742;52.136;4.500;2023-04-07T01:30:03;101621.88;;;7.41;100.00
72857;BME280;62742;52.136;4.500;2023-04-07T01:32:34;101614.94;;;7.43;100.00
72857;BME280;62742;52.136;4.500;2023-04-07T01:35:02;101622.00;;;7.50;100.00
72857;BME280;62742;52.136;4.500;2023-04-07T01:37:34;101620.19;;;7.46;100.00
72857;BME280;62742;52.136;4.500;2023-04-07T01:40:03;101616.69;;;7.44;100.00
72857;BME280;62742;52.136;4.500;2023-04-07T01:42:31;101620.19;;;7.46;100.00
72857;BME280;62742;52.136;4.500;2023-04-07T01:45:00;101618.47;;;7.48;100.00
72857;BME280;62742;52.136;4.500;2023-04-07T01:47:27;101620.28;;;7.52;100.00
72857;BME280;62742;52.136;4.500;2023-04-07T01:49:57;101616.78;;;7.52;100.00
72857;BME280;62742;52.136;4.500;2023-04-07T01:52:26;101627.31;;;7.59;100.00
72857;BME280;62742;52.136;4.500;2023-04-07T01:54:53;101616.88;;;7.62;100.00
72857;BME280;62742;52.136;4.500;2023-04-07T01:57:19;101622.16;;;7.65;100.00
72857;BME280;62742;52.136;4.500;2023-04-07T01:59:46;101622.09;;;7.62;100.00
72857;BME280;62742;52.136;4.500;2023-04-07T02:02:12;101610.75;;;7.59;100.00
72857;BME280;62742;52.136;4.500;2023-04-07T02:04:48;101606.47;;;7.72;100.00
72857;BME280;62742;52.136;4.500;2023-04-07T02:07:24;101606.44;;;7.68;99.96
72857;BME280;62742;52.136;4.500;2023-04-07T02:09:57;101606.41;;;7.62;100.00
72857;BME280;62742;52.136;4.500;2023-04-07T02:12:27;101612.47;;;7.60;100.00
72857;BME280;62742;52.136;4.500;2023-04-07T02:14:55;101613.34;;;7.59;100.00
72857;BME280;62742;52.136;4.500;2023-04-07T02:17:23;101620.34;;;7.63;99.65
72857;BME280;62742;52.136;4.500;2023-04-07T02:19:53;101623.84;;;7.60;99.68
72857;BME280;62742;52.136;4.500;2023-04-07T02:22:22;101625.53;;;7.58;99.44
72857;BME280;62742;52.136;4.500;2023-04-07T02:24:49;101629.03;;;7.57;99.37
72857;BME280;62742;52.136;4.500;2023-04-07T02:27:15;101622.09;;;7.62;99.61
72857;BME280;62742;52.136;4.500;2023-04-07T02:29:42;101637.75;;;7.59;99.97
72857;BME280;62742;52.136;4.500;2023-04-07T02:32:08;101629.06;;;7.59;100.00
72857;BME280;62742;52.136;4.500;2023-04-07T02:34:34;101623.91;;;7.68;100.00
72857;BME280;62742;52.136;4.500;2023-04-07T02:37:01;101628.16;;;7.60;100.00
72857;BME280;62742;52.136;4.500;2023-04-07T02:39:27;101627.38;;;7.65;100.00
72857;BME280;62742;52.136;4.500;2023-04-07T02:41:53;101628.31;;;7.75;100.00
72857;BME280;62742;52.136;4.500;2023-04-07T02:44:19;101630.00;;;7.68;99.79
72857;BME280;62742;52.136;4.500;2023-04-07T02:46:45;101628.28;;;7.74;99.62
72857;BME280;62742;52.136;4.500;2023-04-07T02:49:11;101626.63;;;7.83;99.28
72857;BME280;62742;52.136;4.500;2023-04-07T02:51:38;101633.56;;;7.78;99.31
72857;BME280;62742;52.136;4.500;2023-04-07T02:54:04;101626.75;;;7.93;99.40
72857;BME280;62742;52.136;4.500;2023-04-07T02:56:30;101629.34;;;7.93;98.84
72857;BME280;62742;52.136;4.500;2023-04-07T02:58:57;101630.31;;;8.07;99.11
72857;BME280;62742;52.136;4.500;2023-04-07T03:01:23;101623.34;;;8.08;98.31
72857;BME280;62742;52.136;4.500;2023-04-07T03:03:49;101631.19;;;8.04;98.06
72857;BME280;62742;52.136;4.500;2023-04-07T03:06:15;101629.41;;;8.00;97.88
72857;BME280;62742;52.136;4.500;2023-04-07T03:08:42;101632.91;;;7.99;98.24
72857;BME280;62742;52.136;4.500;2023-04-07T03:11:08;101634.66;;;8.03;98.13
72857;BME280;62742;52.136;4.500;2023-04-07T03:13:35;101636.38;;;8.00;98.63
72857;BME280;62742;52.136;4.500;2023-04-07T03:16:01;101642.47;;;7.99;99.08
72857;BME280;62742;52.136;4.500;2023-04-07T03:18:28;101644.28;;;8.08;99.09
72857;BME280;62742;52.136;4.500;2023-04-07T03:20:54;101643.47;;;8.18;97.62
72857;BME280;62742;52.136;4.500;2023-04-07T03:23:20;101641.78;;;8.23;96.68
72857;BME280;62742;52.136;4.500;2023-04-07T03:25:48;101644.34;;;8.14;97.52
72857;BME280;62742;52.136;4.500;2023-04-07T03:28:15;101643.44;;;8.12;96.70
72857;BME280;62742;52.136;4.500;2023-04-07T03:30:41;101642.47;;;7.99;97.80
72857;BME280;62742;52.136;4.500;2023-04-07T03:33:07;101645.09;;;8.00;97.99
72857;BME280;62742;52.136;4.500;2023-04-07T03:35:34;101638.22;;;8.13;98.00
72857;BME280;62742;52.136;4.500;2023-04-07T03:38:00;101635.63;;;8.18;96.55
72857;BME280;62742;52.136;4.500;2023-04-07T03:40:26;101639.88;;;8.00;97.90
72857;BME280;62742;52.136;4.500;2023-04-07T03:42:52;101636.34;;;7.97;98.23
72857;BME280;62742;52.136;4.500;2023-04-07T03:45:18;101636.41;;;8.06;97.78
72857;BME280;62742;52.136;4.500;2023-04-07T03:47:47;101634.69;;;8.08;96.58
72857;BME280;62742;52.136;4.500;2023-04-07T03:50:13;101640.75;;;7.99;95.72
72857;BME280;62742;52.136;4.500;2023-04-07T03:52:39;101638.91;;;7.92;96.15
72857;BME280;62742;52.136;4.500;2023-04-07T03:55:05;101645.06;;;7.94;96.48
72857;BME280;62742;52.136;4.500;2023-04-07T03:57:32;101648.72;;;8.15;93.92
72857;BME280;62742;52.136;4.500;2023-04-07T03:59:58;101643.25;;;7.87;94.89
72857;BME280;62742;52.136;4.500;2023-04-07T04:02:25;101650.19;;;7.85;95.71
72857;BME280;62742;52.136;4.500;2023-04-07T04:04:51;101651.88;;;7.77;96.65
72857;BME280;62742;52.136;4.500;2023-04-07T04:07:17;101646.69;;;7.83;95.90
72857;BME280;62742;52.136;4.500;2023-04-07T04:09:43;101645.91;;;7.93;95.34
72857;BME280;62742;52.136;4.500;2023-04-07T04:12:10;101653.84;;;7.99;94.57
72857;BME280;62742;52.136;4.500;2023-04-07T04:14:36;101645.13;;;8.03;94.70
72857;BME280;62742;52.136;4.500;2023-04-07T04:17:02;101658.25;;;8.07;93.96
72857;BME280;62742;52.136;4.500;2023-04-07T04:19:29;101644.25;;;8.01;94.89
72857;BME280;62742;52.136;4.500;2023-04-07T04:21:55;101655.47;;;7.88;95.43
72857;BME280;62742;52.136;4.500;2023-04-07T04:24:22;101651.34;;;8.15;94.58
72857;BME280;62742;52.136;4.500;2023-04-07T04:26:48;101653.84;;;7.99;94.96
72857;BME280;62742;52.136;4.500;2023-04-07T04:29:14;101663.44;;;8.02;95.56
72857;BME280;62742;52.136;4.500;2023-04-07T04:31:40;101666.09;;;8.07;94.86
72857;BME280;62742;52.136;4.500;2023-04-07T04:34:06;101668.63;;;7.99;95.13
72857;BME280;62742;52.136;4.500;2023-04-07T04:36:32;101664.28;;;7.98;95.27
72857;BME280;62742;52.136;4.500;2023-04-07T04:38:58;101671.38;;;8.10;94.75
72857;BME280;62742;52.136;4.500;2023-04-07T04:41:25;101676.44;;;7.91;95.85
72857;BME280;62742;52.136;4.500;2023-04-07T04:43:51;101663.41;;;8.00;95.11
72857;BME280;62742;52.136;4.500;2023-04-07T04:46:17;101659.88;;;7.95;95.02
72857;BME280;62742;52.136;4.500;2023-04-07T04:48:43;101670.28;;;7.86;96.04
72857;BME280;62742;52.136;4.500;2023-04-07T04:51:09;101676.28;;;7.74;96.02
72857;BME280;62742;52.136;4.500;2023-04-07T04:53:35;101673.84;;;7.93;94.20
72857;BME280;62742;52.136;4.500;2023-04-07T04:56:01;101685.06;;;7.81;94.72
72857;BME280;62742;52.136;4.500;2023-04-07T04:58:28;101683.25;;;7.77;95.19
72857;BME280;62742;52.136;4.500;2023-04-07T05:00:54;101682.44;;;7.81;93.41
72857;BME280;62742;52.136;4.500;2023-04-07T05:03:23;101685.06;;;7.81;94.00
72857;BME280;62742;52.136;4.500;2023-04-07T05:05:52;101684.31;;;7.93;93.47
72857;BME280;62742;52.136;4.500;2023-04-07T05:08:19;101685.09;;;7.87;93.70
72857;BME280;62742;52.136;4.500;2023-04-07T05:10:45;101687.94;;;8.10;93.06
72857;BME280;62742;52.136;4.500;2023-04-07T05:13:11;101697.44;;;8.00;93.19
72857;BME280;62742;52.136;4.500;2023-04-07T05:15:39;101698.22;;;7.90;91.38
72857;BME280;62742;52.136;4.500;2023-04-07T05:18:06;101693.97;;;8.00;90.48
72857;BME280;62742;52.136;4.500;2023-04-07T05:20:32;101696.53;;;7.97;91.28
72857;BME280;62742;52.136;4.500;2023-04-07T05:22:58;101692.06;;;7.85;92.18
72857;BME280;62742;52.136;4.500;2023-04-07T05:25:24;101696.53;;;7.95;91.50
72857;BME280;62742;52.136;4.500;2023-04-07T05:27:50;101692.19;;;7.99;91.93
72857;BME280;62742;52.136;4.500;2023-04-07T05:30:17;101701.75;;;7.94;91.20
72857;BME280;62742;52.136;4.500;2023-04-07T05:32:44;101706.91;;;7.86;91.94
72857;BME280;62742;52.136;4.500;2023-04-07T05:35:10;101700.78;;;7.85;92.30
72857;BME280;62742;52.136;4.500;2023-04-07T05:37:37;101702.56;;;7.88;92.10
72857;BME280;62742;52.136;4.500;2023-04-07T05:40:03;101704.44;;;8.00;91.48
72857;BME280;62742;52.136;4.500;2023-04-07T05:42:30;101702.63;;;7.94;91.89
72857;BME280;62742;52.136;4.500;2023-04-07T05:44:56;101701.75;;;7.95;89.67
72857;BME280;62742;52.136;4.500;2023-04-07T05:47:22;101703.63;;;8.10;87.66
72857;BME280;62742;52.136;4.500;2023-04-07T05:49:49;101707.09;;;8.08;88.49
72857;BME280;62742;52.136;4.500;2023-04-07T05:52:15;101705.25;;;7.93;89.62
72857;BME280;62742;52.136;4.500;2023-04-07T05:54:41;101710.47;;;7.96;89.96
72857;BME280;62742;52.136;4.500;2023-04-07T05:57:07;101711.31;;;7.90;89.68
72857;BME280;62742;52.136;4.500;2023-04-07T05:59:34;101718.47;;;8.13;88.97
72857;BME280;62742;52.136;4.500;2023-04-07T06:02:02;101721.88;;;8.02;89.55
72857;BME280;62742;52.136;4.500;2023-04-07T06:04:28;101719.16;;;7.90;91.08
72857;BME280;62742;52.136;4.500;2023-04-07T06:06:55;101720.19;;;8.04;90.81
72857;BME280;62742;52.136;4.500;2023-04-07T06:09:21;101731.63;;;8.19;89.99
72857;BME280;62742;52.136;4.500;2023-04-07T06:11:47;101723.84;;;8.30;89.73
72857;BME280;62742;52.136;4.500;2023-04-07T06:14:13;101732.50;;;8.15;91.58
72857;BME280;62742;52.136;4.500;2023-04-07T06:16:40;101735.03;;;8.07;92.39
72857;BME280;62742;52.136;4.500;2023-04-07T06:19:06;101735.00;;;8.05;92.87
72857;BME280;62742;52.136;4.500;2023-04-07T06:21:32;101740.34;;;8.18;92.49
72857;BME280;62742;52.136;4.500;2023-04-07T06:23:59;101731.75;;;8.33;91.69
72857;BME280;62742;52.136;4.500;2023-04-07T06:26:25;101741.31;;;8.29;91.37
72857;BME280;62742;52.136;4.500;2023-04-07T06:28:52;101749.88;;;8.10;92.48
72857;BME280;62742;52.136;4.500;2023-04-07T06:31:18;101743.81;;;8.14;93.43
72857;BME280;62742;52.136;4.500;2023-04-07T06:33:45;101744.59;;;8.05;93.94
72857;BME280;62742;52.136;4.500;2023-04-07T06:36:11;101754.22;;;8.09;92.05
72857;BME280;62742;52.136;4.500;2023-04-07T06:38:38;101751.72;;;8.23;89.90
72857;BME280;62742;52.136;4.500;2023-04-07T06:41:04;101755.13;;;8.13;88.59
72857;BME280;62742;52.136;4.500;2023-04-07T06:43:31;101753.44;;;8.18;87.98
72857;BME280;62742;52.136;4.500;2023-04-07T06:45:57;101759.53;;;8.15;89.10
72857;BME280;62742;52.136;4.500;2023-04-07T06:48:23;101770.78;;;8.07;89.10
72857;BME280;62742;52.136;4.500;2023-04-07T06:50:49;101762.94;;;8.07;88.62
72857;BME280;62742;52.136;4.500;2023-04-07T06:53:16;101764.81;;;8.20;87.33
72857;BME280;62742;52.136;4.500;2023-04-07T06:55:42;101770.09;;;8.28;88.33
72857;BME280;62742;52.136;4.500;2023-04-07T06:58:09;101776.28;;;8.34;87.20
72857;BME280;62742;52.136;4.500;2023-04-07T07:00:35;101775.38;;;8.31;86.03
72857;BME280;62742;52.136;4.500;2023-04-07T07:03:01;101772.66;;;8.23;87.54
72857;BME280;62742;52.136;4.500;2023-04-07T07:05:28;101772.72;;;8.28;87.10
72857;BME280;62742;52.136;4.500;2023-04-07T07:07:54;101782.34;;;8.32;87.22
72857;BME280;62742;52.136;4.500;2023-04-07T07:10:20;101778.03;;;8.37;86.97
72857;BME280;62742;52.136;4.500;2023-04-07T07:12:50;101777.91;;;8.23;87.91
72857;BME280;62742;52.136;4.500;2023-04-07T07:15:16;101775.25;;;8.15;87.76
72857;BME280;62742;52.136;4.500;2023-04-07T07:17:43;101783.25;;;8.32;87.77
72857;BME280;62742;52.136;4.500;2023-04-07T07:20:09;101786.75;;;8.34;88.46
72857;BME280;62742;52.136;4.500;2023-04-07T07:22:36;101786.72;;;8.33;87.99
72857;BME280;62742;52.136;4.500;2023-04-07T07:25:02;101793.63;;;8.20;89.57
72857;BME280;62742;52.136;4.500;2023-04-07T07:27:28;101799.75;;;8.27;89.77
72857;BME280;62742;52.136;4.500;2023-04-07T07:29:55;101797.44;;;8.53;87.19
72857;BME280;62742;52.136;4.500;2023-04-07T07:32:21;101797.44;;;8.53;87.41
72857;BME280;62742;52.136;4.500;2023-04-07T07:34:47;101797.50;;;8.62;86.07
72857;BME280;62742;52.136;4.500;2023-04-07T07:37:14;101797.56;;;8.74;86.08
72857;BME280;62742;52.136;4.500;2023-04-07T07:39:41;101801.94;;;8.74;85.54
72857;BME280;62742;52.136;4.500;2023-04-07T07:42:07;101800.19;;;8.74;84.68
72857;BME280;62742;52.136;4.500;2023-04-07T07:44:33;101804.69;;;8.91;82.23
72857;BME280;62742;52.136;4.500;2023-04-07T07:47:00;101805.50;;;8.80;84.06
72857;BME280;62742;52.136;4.500;2023-04-07T07:49:26;101802.84;;;8.77;83.90
72857;BME280;62742;52.136;4.500;2023-04-07T07:51:52;101799.41;;;8.82;84.06
72857;BME280;62742;52.136;4.500;2023-04-07T07:54:18;101809.97;;;8.94;83.75
72857;BME280;62742;52.136;4.500;2023-04-07T07:56:44;101813.53;;;9.10;83.78
72857;BME280;62742;52.136;4.500;2023-04-07T07:59:11;101820.59;;;9.20;81.46
72857;BME280;62742;52.136;4.500;2023-04-07T08:01:37;101823.19;;;9.12;82.70
72857;BME280;62742;52.136;4.500;2023-04-07T08:04:03;101822.25;;;9.04;81.45
72857;BME280;62742;52.136;4.500;2023-04-07T08:06:29;101827.50;;;9.03;81.74
72857;BME280;62742;52.136;4.500;2023-04-07T08:08:56;101824.00;;;9.05;81.77
72857;BME280;62742;52.136;4.500;2023-04-07T08:11:22;101830.13;;;9.04;82.20
72857;BME280;62742;52.136;4.500;2023-04-07T08:13:48;101831.88;;;9.04;83.50
72857;BME280;62742;52.136;4.500;2023-04-07T08:16:15;101830.16;;;9.10;82.97
72857;BME280;62742;52.136;4.500;2023-04-07T08:18:41;101831.03;;;9.09;84.22
72857;BME280;62742;52.136;4.500;2023-04-07T08:21:07;101831.06;;;9.18;81.84
72857;BME280;62742;52.136;4.500;2023-04-07T08:23:34;101838.91;;;9.15;81.83
72857;BME280;62742;52.136;4.500;2023-04-07T08:26:00;101839.91;;;9.30;82.01
72857;BME280;62742;52.136;4.500;2023-04-07T08:28:26;101847.63;;;9.08;83.50
72857;BME280;62742;52.136;4.500;2023-04-07T08:30:53;101844.97;;;9.02;82.51
72857;BME280;62742;52.136;4.500;2023-04-07T08:33:19;101850.25;;;9.11;82.17
72857;BME280;62742;52.136;4.500;2023-04-07T08:35:45;101846.75;;;9.08;82.35
72857;BME280;62742;52.136;4.500;2023-04-07T08:38:12;101850.25;;;9.10;82.66
72857;BME280;62742;52.136;4.500;2023-04-07T08:40:38;101859.13;;;9.29;83.72
72857;BME280;62742;52.136;4.500;2023-04-07T08:43:07;101858.09;;;9.08;82.19
72857;BME280;62742;52.136;4.500;2023-04-07T08:45:38;101853.75;;;9.07;84.14
72857;BME280;62742;52.136;4.500;2023-04-07T08:48:11;101845.06;;;9.17;83.69
72857;BME280;62742;52.136;4.500;2023-04-07T08:50:44;101852.09;;;9.22;85.31
72857;BME280;62742;52.136;4.500;2023-04-07T08:53:12;101853.84;;;9.27;85.55
72857;BME280;62742;52.136;4.500;2023-04-07T08:55:40;101862.72;;;9.48;83.15
72857;BME280;62742;52.136;4.500;2023-04-07T08:58:09;101867.09;;;9.49;83.06
72857;BME280;62742;52.136;4.500;2023-04-07T09:00:44;101867.13;;;9.50;83.76
72857;BME280;62742;52.136;4.500;2023-04-07T09:03:11;101864.53;;;9.53;84.69
72857;BME280;62742;52.136;4.500;2023-04-07T09:05:38;101862.81;;;9.66;81.96
72857;BME280;62742;52.136;4.500;2023-04-07T09:08:05;101865.47;;;9.71;81.83
72857;BME280;62742;52.136;4.500;2023-04-07T09:10:31;101864.59;;;9.75;80.32
72857;BME280;62742;52.136;4.500;2023-04-07T09:12:58;101857.63;;;9.74;80.68
72857;BME280;62742;52.136;4.500;2023-04-07T09:15:25;101865.47;;;9.79;81.20
72857;BME280;62742;52.136;4.500;2023-04-07T09:17:56;101868.16;;;9.88;81.56
72857;BME280;62742;52.136;4.500;2023-04-07T09:20:24;101870.88;;;10.06;81.04
72857;BME280;62742;52.136;4.500;2023-04-07T09:22:50;101871.78;;;10.22;79.85
72857;BME280;62742;52.136;4.500;2023-04-07T09:25:18;101875.34;;;10.34;80.69
72857;BME280;62742;52.136;4.500;2023-04-07T09:27:57;101873.59;;;10.33;79.27
72857;BME280;62742;52.136;4.500;2023-04-07T09:30:28;101872.59;;;10.03;79.79
72857;BME280;62742;52.136;4.500;2023-04-07T09:32:56;101870.91;;;10.20;79.38
72857;BME280;62742;52.136;4.500;2023-04-07T09:35:23;101870.03;;;10.18;80.09
72857;BME280;62742;52.136;4.500;2023-04-07T09:38:02;101871.78;;;10.24;80.26
72857;BME280;62742;52.136;4.500;2023-04-07T09:40:33;101877.09;;;10.48;78.21
72857;BME280;62742;52.136;4.500;2023-04-07T09:43:00;101882.38;;;10.44;77.95
72857;BME280;62742;52.136;4.500;2023-04-07T09:45:28;101881.50;;;10.59;80.34
72857;BME280;62742;52.136;4.500;2023-04-07T09:47:56;101882.38;;;10.81;80.18
72857;BME280;62742;52.136;4.500;2023-04-07T09:50:37;101882.38;;;10.81;78.34
72857;BME280;62742;52.136;4.500;2023-04-07T09:53:05;101890.22;;;10.39;78.76
72857;BME280;62742;52.136;4.500;2023-04-07T09:55:32;101890.25;;;10.41;80.42
72857;BME280;62742;52.136;4.500;2023-04-07T09:58:00;101889.38;;;10.39;79.99
72857;BME280;62742;52.136;4.500;2023-04-07T10:00:26;101887.50;;;10.16;79.87
72857;BME280;62742;52.136;4.500;2023-04-07T10:02:52;101891.97;;;10.33;80.26
72857;BME280;62742;52.136;4.500;2023-04-07T10:05:19;101896.38;;;10.41;80.54
72857;BME280;62742;52.136;4.500;2023-04-07T10:07:47;101892.00;;;10.50;81.33
72857;BME280;62742;52.136;4.500;2023-04-07T10:10:14;101898.13;;;10.41;80.34
72857;BME280;62742;52.136;4.500;2023-04-07T10:12:40;101900.75;;;10.47;81.31
72857;BME280;62742;52.136;4.500;2023-04-07T10:15:07;101896.34;;;10.37;80.11
72857;BME280;62742;52.136;4.500;2023-04-07T10:17:37;101903.25;;;10.10;79.98
72857;BME280;62742;52.136;4.500;2023-04-07T10:20:06;101897.94;;;9.91;80.88
72857;BME280;62742;52.136;4.500;2023-04-07T10:22:35;101894.41;;;9.86;80.59
72857;BME280;62742;52.136;4.500;2023-04-07T10:25:06;101906.69;;;9.97;81.08
72857;BME280;62742;52.136;4.500;2023-04-07T10:27:37;101903.25;;;10.16;81.39
72857;BME280;62742;52.136;4.500;2023-04-07T10:30:31;101908.59;;;10.32;81.72
72857;BME280;62742;52.136;4.500;2023-04-07T10:32:58;101914.63;;;10.09;80.84
72857;BME280;62742;52.136;4.500;2023-04-07T10:35:25;101912.88;;;10.08;81.77
72857;BME280;62742;52.136;4.500;2023-04-07T10:40:35;101919.75;;;9.80;82.14
72857;BME280;62742;52.136;4.500;2023-04-07T10:43:02;101906.69;;;9.93;83.10
72857;BME280;62742;52.136;4.500;2023-04-07T10:48:14;101915.53;;;10.19;80.69
72857;BME280;62742;52.136;4.500;2023-04-07T10:50:41;101923.50;;;10.33;81.72
72857;BME280;62742;52.136;4.500;2023-04-07T10:53:11;101913.00;;;10.34;79.51
72857;BME280;62742;52.136;4.500;2023-04-07T10:55:42;101915.50;;;10.03;82.48
72857;BME280;62742;52.136;4.500;2023-04-07T10:58:22;101926.06;;;10.20;79.55
72857;BME280;62742;52.136;4.500;2023-04-07T11:03:34;101916.38;;;10.08;80.93
72857;BME280;62742;52.136;4.500;2023-04-07T11:11:04;101928.63;;;10.11;80.90
72857;BME280;62742;52.136;4.500;2023-04-07T11:13:42;101931.31;;;10.19;78.95
72857;BME280;62742;52.136;4.500;2023-04-07T11:16:09;101930.38;;;10.09;79.53
72857;BME280;62742;52.136;4.500;2023-04-07T11:18:36;101940.00;;;10.04;80.19
72857;BME280;62742;52.136;4.500;2023-04-07T11:21:02;101937.44;;;10.15;79.27
72857;BME280;62742;52.136;4.500;2023-04-07T11:23:39;101935.69;;;10.17;78.32
72857;BME280;62742;52.136;4.500;2023-04-07T11:26:07;101947.88;;;9.99;78.97
72857;BME280;62742;52.136;4.500;2023-04-07T11:28:48;101945.16;;;9.85;80.31
72857;BME280;62742;52.136;4.500;2023-04-07T11:31:29;101940.88;;;10.06;80.19
72857;BME280;62742;52.136;4.500;2023-04-07T11:36:30;101945.31;;;10.19;79.41
72857;BME280;62742;52.136;4.500;2023-04-07T11:39:03;101948.03;;;10.38;77.71
72857;BME280;62742;52.136;4.500;2023-04-07T11:41:31;101948.97;;;10.63;77.25
72857;BME280;62742;52.136;4.500;2023-04-07T11:44:10;101947.22;;;10.56;76.48
72857;BME280;62742;52.136;4.500;2023-04-07T11:46:56;101957.75;;;10.76;76.57
72857;BME280;62742;52.136;4.500;2023-04-07T11:49:24;101948.06;;;10.50;76.91
72857;BME280;62742;52.136;4.500;2023-04-07T11:52:00;101955.94;;;10.42;76.91
72857;BME280;62742;52.136;4.500;2023-04-07T11:54:43;101962.97;;;10.50;76.31
72857;BME280;62742;52.136;4.500;2023-04-07T11:57:26;101966.50;;;10.65;75.11
72857;BME280;62742;52.136;4.500;2023-04-07T12:00:09;101964.69;;;10.43;75.58
72857;BME280;62742;52.136;4.500;2023-04-07T12:02:37;101967.31;;;10.40;77.25
72857;BME280;62742;52.136;4.500;2023-04-07T12:05:03;101968.28;;;10.70;76.75
72857;BME280;62742;52.136;4.500;2023-04-07T12:07:31;101961.28;;;10.84;75.96
72857;BME280;62742;52.136;4.500;2023-04-07T12:10:13;101963.03;;;10.97;75.44
72857;BME280;62742;52.136;4.500;2023-04-07T12:12:44;101967.41;;;10.81;74.57
72857;BME280;62742;52.136;4.500;2023-04-07T12:15:11;101972.63;;;10.60;74.42
72857;BME280;62742;52.136;4.500;2023-04-07T12:17:42;101977.03;;;10.72;75.80
72857;BME280;62742;52.136;4.500;2023-04-07T12:20:10;101980.50;;;10.61;76.86
72857;BME280;62742;52.136;4.500;2023-04-07T12:22:36;101977.06;;;10.78;76.20
72857;BME280;62742;52.136;4.500;2023-04-07T12:25:03;101982.31;;;10.89;74.58
72857;BME280;62742;52.136;4.500;2023-04-07T12:27:29;101991.91;;;10.74;76.19
72857;BME280;62742;52.136;4.500;2023-04-07T12:29:56;101986.69;;;10.73;77.71
72857;BME280;62742;52.136;4.500;2023-04-07T12:32:22;101985.81;;;10.86;75.63
72857;BME280;62742;52.136;4.500;2023-04-07T12:34:49;101979.72;;;10.92;74.31
72857;BME280;62742;52.136;4.500;2023-04-07T12:37:15;101992.88;;;11.06;75.58
72857;BME280;62742;52.136;4.500;2023-04-07T12:39:41;101984.94;;;10.95;74.63
72857;BME280;62742;52.136;4.500;2023-04-07T12:42:08;101994.63;;;11.19;76.51
72857;BME280;62742;52.136;4.500;2023-04-07T12:44:37;101987.63;;;11.18;75.38
72857;BME280;62742;52.136;4.500;2023-04-07T12:47:03;101999.88;;;11.00;73.87
72857;BME280;62742;52.136;4.500;2023-04-07T12:49:29;101994.63;;;11.00;73.38
72857;BME280;62742;52.136;4.500;2023-04-07T12:51:55;101990.25;;;11.26;75.66
72857;BME280;62742;52.136;4.500;2023-04-07T12:54:23;101990.22;;;11.46;74.31
72857;BME280;62742;52.136;4.500;2023-04-07T12:56:49;101988.47;;;11.01;73.73
72857;BME280;62742;52.136;4.500;2023-04-07T12:59:16;101996.38;;;11.06;75.54
72857;BME280;62742;52.136;4.500;2023-04-07T13:01:42;101989.34;;;11.00;73.83
72857;BME280;62742;52.136;4.500;2023-04-07T13:04:08;101993.75;;;10.98;75.93
72857;BME280;62742;52.136;4.500;2023-04-07T13:06:35;101998.97;;;10.91;74.57
72857;BME280;62742;52.136;4.500;2023-04-07T13:09:02;102008.59;;;10.78;77.53
72857;BME280;62742;52.136;4.500;2023-04-07T13:11:28;101998.97;;;10.81;78.35
72857;BME280;62742;52.136;4.500;2023-04-07T13:13:54;101999.84;;;10.94;76.23
72857;BME280;62742;52.136;4.500;2023-04-07T13:16:21;102005.03;;;10.60;76.91
72857;BME280;62742;52.136;4.500;2023-04-07T13:18:47;102000.59;;;10.39;77.56
72857;BME280;62742;52.136;4.500;2023-04-07T13:21:13;102007.44;;;10.16;79.12